Time;durP1;ratioP1;P1;durP2;ratioP2;P2;SDS_P1;SDS_P2;PMS_P1;PMS_P2;Temp;Humidity;BMP_temperature;BMP_pressure;BME280_temperature;BME280_humidity;BME280_pressure;Samples;Min_cycle;Max_cycle;Signal;HPM_P1;HPM_P2
2021/01/17 00:00:45;;;;;;;17.50;12.53;;;-0.50;99.90;;;;;;5089520;28;20462;-71
2021/01/17 00:03:12;;;;;;;22.67;15.63;;;-0.50;99.90;;;;;;5089217;28;20956;-70
2021/01/17 00:05:38;;;;;;;24.97;15.87;;;-0.40;99.90;;;;;;5083209;28;20308;-71
2021/01/17 00:08:08;;;;;;;27.57;17.63;;;-0.40;99.90;;;;;;5089632;28;20505;-72
2021/01/17 00:10:35;;;;;;;23.27;16.23;;;-0.30;99.90;;;;;;5082628;28;20536;-71
2021/01/17 00:13:03;;;;;;;23.57;16.27;;;-0.20;99.90;;;;;;5089445;28;20886;-71
2021/01/17 00:15:31;;;;;;;23.30;16.63;;;-0.20;99.90;;;;;;5088549;28;20450;-71
2021/01/17 00:17:58;;;;;;;21.90;14.60;;;-0.30;99.90;;;;;;5089454;28;20564;-71
2021/01/17 00:20:25;;;;;;;21.63;15.90;;;-0.30;99.90;;;;;;5083990;28;21049;-71
2021/01/17 00:22:53;;;;;;;25.83;17.60;;;-0.30;99.90;;;;;;5075032;28;20469;-71
2021/01/17 00:25:21;;;;;;;22.10;14.40;;;-0.20;99.90;;;;;;5077672;28;20523;-70
2021/01/17 00:27:49;;;;;;;24.70;16.33;;;-0.20;99.90;;;;;;5069105;28;20539;-70
2021/01/17 00:30:17;;;;;;;21.57;15.70;;;-0.30;99.90;;;;;;5079989;28;20515;-71
2021/01/17 00:32:48;;;;;;;19.50;14.00;;;-0.30;99.90;;;;;;5082607;28;20557;-71
2021/01/17 00:35:16;;;;;;;24.90;15.10;;;-0.40;99.90;;;;;;5089336;28;20486;-70
2021/01/17 00:37:43;;;;;;;22.47;15.00;;;-0.30;99.90;;;;;;5088878;28;20531;-71
2021/01/17 00:40:10;;;;;;;21.03;13.93;;;-0.30;99.90;;;;;;5088336;28;20477;-72
2021/01/17 00:42:44;;;;;;;23.90;14.77;;;-0.30;99.90;;;;;;5088977;28;20557;-71
2021/01/17 00:45:12;;;;;;;21.07;13.67;;;-0.20;99.90;;;;;;5088880;28;20442;-72
2021/01/17 00:47:42;;;;;;;21.97;14.63;;;-0.20;99.90;;;;;;5080429;28;20525;-70
2021/01/17 00:50:10;;;;;;;19.83;13.87;;;-0.20;99.90;;;;;;5074398;28;20471;-71
2021/01/17 00:52:37;;;;;;;20.23;14.80;;;-0.20;99.90;;;;;;5081681;28;20994;-71
2021/01/17 00:55:04;;;;;;;24.27;15.60;;;-0.30;99.90;;;;;;5086464;28;20541;-71
2021/01/17 00:57:31;;;;;;;20.90;14.20;;;-0.40;99.90;;;;;;5080119;28;20509;-70
2021/01/17 00:59:57;;;;;;;19.53;14.30;;;-0.40;99.90;;;;;;5067246;28;20847;-73
2021/01/17 01:02:23;;;;;;;22.23;13.60;;;-0.40;99.90;;;;;;5087709;28;20466;-71
2021/01/17 01:04:50;;;;;;;19.77;15.10;;;-0.40;99.90;;;;;;5084129;28;20451;-69
2021/01/17 01:07:16;;;;;;;21.50;14.30;;;-0.30;99.90;;;;;;5085614;28;20520;-71
2021/01/17 01:09:44;;;;;;;24.93;15.60;;;-0.30;99.90;;;;;;5081186;28;20208;-71
2021/01/17 01:12:10;;;;;;;21.23;14.17;;;-0.20;99.90;;;;;;5088105;28;20548;-70
2021/01/17 01:14:36;;;;;;;22.60;14.67;;;-0.20;99.90;;;;;;5089072;28;20993;-71
2021/01/17 01:17:03;;;;;;;19.50;14.67;;;-0.30;99.90;;;;;;5087525;28;20576;-71
2021/01/17 01:19:29;;;;;;;20.60;14.70;;;-0.30;99.90;;;;;;5088123;28;20450;-70
2021/01/17 01:21:56;;;;;;;18.03;12.30;;;-0.20;99.90;;;;;;5087974;28;20612;-71
2021/01/17 01:24:22;;;;;;;15.93;11.90;;;-0.20;99.90;;;;;;5088308;28;20450;-71
2021/01/17 01:26:49;;;;;;;19.50;12.67;;;-0.30;99.90;;;;;;5086916;28;20537;-71
2021/01/17 01:29:15;;;;;;;21.50;13.43;;;-0.30;99.90;;;;;;5082786;28;21019;-70
2021/01/17 01:31:43;;;;;;;16.50;12.90;;;-0.20;99.90;;;;;;5088683;28;20502;-72
2021/01/17 01:34:09;;;;;;;18.20;12.23;;;-0.20;99.90;;;;;;5087799;28;20461;-70
2021/01/17 01:36:37;;;;;;;18.50;12.63;;;-0.20;99.90;;;;;;5087656;28;20992;-72
2021/01/17 01:39:05;;;;;;;19.50;12.53;;;-0.20;99.90;;;;;;5086056;28;20544;-72
2021/01/17 01:41:33;;;;;;;19.80;12.80;;;-0.30;99.90;;;;;;5068911;28;20529;-70
2021/01/17 01:44:00;;;;;;;20.30;13.07;;;-0.30;99.90;;;;;;5069358;28;20474;-70
2021/01/17 01:46:29;;;;;;;18.30;11.50;;;-0.30;99.90;;;;;;5069500;28;20510;-71
2021/01/17 01:48:56;;;;;;;20.57;13.57;;;-0.30;99.90;;;;;;5069214;28;20533;-71
2021/01/17 01:51:24;;;;;;;20.50;13.60;;;-0.30;99.90;;;;;;5067745;28;20463;-71
2021/01/17 01:53:51;;;;;;;19.60;12.83;;;-0.30;99.90;;;;;;5069569;28;20443;-71
2021/01/17 01:56:18;;;;;;;22.53;13.63;;;-0.30;99.90;;;;;;5069274;28;20834;-72
2021/01/17 01:58:45;;;;;;;19.70;14.83;;;-0.30;99.90;;;;;;5069329;28;20903;-71
2021/01/17 02:01:13;;;;;;;21.30;14.93;;;-0.30;99.90;;;;;;5068607;28;20820;-71
2021/01/17 02:03:45;;;;;;;25.20;16.43;;;-0.30;99.90;;;;;;5069262;28;20454;-71
2021/01/17 02:06:11;;;;;;;21.17;15.07;;;-0.30;99.90;;;;;;5069417;28;20450;-70
2021/01/17 02:08:51;;;;;;;21.27;13.97;;;-0.20;99.90;;;;;;5069303;28;20449;-70
2021/01/17 02:11:26;;;;;;;25.40;16.40;;;-0.20;99.90;;;;;;5068774;28;20549;-70
2021/01/17 02:14:01;;;;;;;26.23;17.77;;;-0.20;99.90;;;;;;5069161;28;20533;-71
2021/01/17 02:16:29;;;;;;;23.10;16.47;;;-0.20;99.90;;;;;;5068887;28;21031;-71
2021/01/17 02:18:59;;;;;;;24.90;17.73;;;-0.20;99.90;;;;;;5068940;28;20453;-71
2021/01/17 02:21:25;;;;;;;24.40;17.53;;;-0.20;99.90;;;;;;5068241;28;20471;-71
2021/01/17 02:23:58;;;;;;;23.97;17.47;;;-0.30;99.90;;;;;;5068977;28;20461;-71
2021/01/17 02:26:26;;;;;;;26.33;15.97;;;-0.30;99.90;;;;;;5069059;28;20444;-71
2021/01/17 02:28:53;;;;;;;21.60;15.10;;;-0.20;99.90;;;;;;5069125;28;20443;-70
2021/01/17 02:31:20;;;;;;;25.47;17.47;;;-0.20;99.90;;;;;;5068409;28;20463;-71
2021/01/17 02:33:49;;;;;;;21.53;15.40;;;-0.30;99.90;;;;;;5068935;28;20453;-72
2021/01/17 02:36:29;;;;;;;24.70;17.27;;;-0.30;99.90;;;;;;5079652;28;20528;-72
2021/01/17 02:39:06;;;;;;;24.20;16.83;;;-0.30;99.90;;;;;;5102531;28;20437;-71
2021/01/17 02:41:39;;;;;;;25.10;17.07;;;-0.40;99.90;;;;;;5113343;28;20547;-71
2021/01/17 02:44:07;;;;;;;24.87;16.80;;;-0.50;99.90;;;;;;5113492;28;20449;-72
2021/01/17 02:46:33;;;;;;;23.23;17.20;;;-0.40;99.90;;;;;;5113464;28;20936;-71
2021/01/17 02:49:00;;;;;;;22.33;15.70;;;-0.40;99.90;;;;;;5113443;28;20463;-71
2021/01/17 02:51:26;;;;;;;23.90;16.43;;;-0.30;99.90;;;;;;5112803;28;20479;-71
2021/01/17 02:54:00;;;;;;;23.20;16.37;;;-0.30;99.90;;;;;;5113733;28;20629;-71
2021/01/17 02:56:32;;;;;;;23.93;16.27;;;-0.40;99.90;;;;;;5113111;28;20478;-71
2021/01/17 02:59:01;;;;;;;21.83;16.40;;;-0.40;99.90;;;;;;5113307;28;20437;-71
2021/01/17 03:01:31;;;;;;;20.80;14.17;;;-0.40;99.90;;;;;;5112818;27;20496;-70
2021/01/17 03:04:02;;;;;;;22.77;16.10;;;-0.40;99.90;;;;;;5113256;28;20453;-72
2021/01/17 03:06:29;;;;;;;19.50;13.47;;;-0.50;99.90;;;;;;5113366;27;20441;-71
2021/01/17 03:08:56;;;;;;;24.73;14.70;;;-0.50;99.90;;;;;;5113538;28;20441;-71
2021/01/17 03:11:23;;;;;;;22.20;15.10;;;-0.50;99.90;;;;;;5112803;28;20471;-71
2021/01/17 03:13:50;;;;;;;23.60;15.90;;;-0.50;99.90;;;;;;5113236;28;20476;-70
2021/01/17 03:16:17;;;;;;;21.53;13.87;;;-0.50;99.90;;;;;;5112805;28;20928;-70
2021/01/17 03:18:44;;;;;;;22.07;15.07;;;-0.40;99.90;;;;;;5112217;28;20524;-70
2021/01/17 03:21:10;;;;;;;24.30;15.30;;;-0.40;99.90;;;;;;5111859;28;20543;-72
2021/01/17 03:23:36;;;;;;;20.17;14.00;;;-0.40;99.90;;;;;;5113246;28;20568;-71
2021/01/17 03:26:03;;;;;;;18.23;13.97;;;-0.50;99.90;;;;;;5113171;28;20500;-71
2021/01/17 03:28:29;;;;;;;24.13;14.80;;;-0.50;99.90;;;;;;5113037;28;20921;-70
2021/01/17 03:30:56;;;;;;;22.30;14.60;;;-0.50;99.90;;;;;;5112339;28;20467;-70
2021/01/17 03:33:23;;;;;;;20.10;14.30;;;-0.40;99.90;;;;;;5112604;28;20451;-71
2021/01/17 03:35:49;;;;;;;21.87;14.57;;;-0.40;99.90;;;;;;5112745;28;20528;-71
2021/01/17 03:38:16;;;;;;;23.60;15.37;;;-0.40;99.90;;;;;;5112598;28;20481;-71
2021/01/17 03:40:42;;;;;;;20.87;16.07;;;-0.40;99.90;;;;;;5112141;28;20830;-71
2021/01/17 03:43:09;;;;;;;20.93;15.30;;;-0.40;99.90;;;;;;5112615;28;20524;-70
2021/01/17 03:45:35;;;;;;;24.47;15.03;;;-0.30;99.90;;;;;;5112258;28;20449;-71
2021/01/17 03:48:01;;;;;;;23.83;15.40;;;-0.20;99.90;;;;;;5112082;28;20730;-70
2021/01/17 03:50:29;;;;;;;21.00;14.67;;;-0.20;99.90;;;;;;5111887;28;20930;-70
2021/01/17 03:52:55;;;;;;;28.80;18.40;;;-0.20;99.90;;;;;;5112335;28;21019;-72
2021/01/17 03:55:22;;;;;;;24.60;17.43;;;-0.10;99.90;;;;;;5112168;28;20916;-71
2021/01/17 03:57:48;;;;;;;22.27;15.50;;;-0.20;99.90;;;;;;5112011;28;20474;-71
2021/01/17 04:00:15;;;;;;;24.50;17.27;;;-0.20;99.90;;;;;;5111644;28;20441;-71
2021/01/17 04:02:42;;;;;;;27.13;18.13;;;-0.30;99.90;;;;;;5112101;28;21054;-71
2021/01/17 04:05:09;;;;;;;27.20;17.30;;;-0.20;99.90;;;;;;5112027;28;20532;-70
2021/01/17 04:07:36;;;;;;;27.20;18.50;;;-0.20;99.90;;;;;;5112073;28;20441;-71
2021/01/17 04:10:04;;;;;;;24.60;15.70;;;-0.10;99.90;;;;;;5111447;28;20594;-70
2021/01/17 04:12:32;;;;;;;25.00;16.90;;;-0.20;99.90;;;;;;5111907;28;20469;-70
2021/01/17 04:14:58;;;;;;;26.37;17.53;;;-0.30;99.90;;;;;;5111703;28;20861;-71
2021/01/17 04:17:25;;;;;;;26.83;17.10;;;-0.30;99.90;;;;;;5111721;28;20910;-71
2021/01/17 04:19:51;;;;;;;31.63;19.03;;;-0.30;99.90;;;;;;5111094;27;21035;-71
2021/01/17 04:22:17;;;;;;;25.47;17.50;;;-0.30;99.90;;;;;;5111606;28;20549;-71
2021/01/17 04:24:45;;;;;;;29.77;18.70;;;-0.30;99.90;;;;;;5111850;27;20469;-71
2021/01/17 04:27:12;;;;;;;31.60;19.43;;;-0.30;99.90;;;;;;5108494;28;20477;-71
2021/01/17 04:29:38;;;;;;;28.10;17.77;;;-0.20;99.90;;;;;;5101458;28;20488;-70
2021/01/17 04:32:05;;;;;;;26.43;18.67;;;-0.10;99.90;;;;;;5110333;28;20988;-70
2021/01/17 04:34:33;;;;;;;30.40;19.23;;;-0.20;99.90;;;;;;5111620;28;20939;-71
2021/01/17 04:37:00;;;;;;;26.40;18.30;;;-0.30;99.90;;;;;;5111276;27;20477;-70
2021/01/17 04:39:26;;;;;;;26.20;18.80;;;-0.20;99.90;;;;;;5110762;28;20478;-70
2021/01/17 04:41:57;;;;;;;25.13;18.53;;;-0.20;99.90;;;;;;5111126;28;20528;-71
2021/01/17 04:44:34;;;;;;;29.50;19.23;;;-0.20;99.90;;;;;;5111570;28;20448;-70
2021/01/17 04:47:03;;;;;;;25.83;18.90;;;-0.10;99.90;;;;;;5111924;28;20528;-70
2021/01/17 04:49:33;;;;;;;29.07;19.10;;;-0.10;99.90;;;;;;5111635;28;20446;-71
2021/01/17 04:52:02;;;;;;;27.30;17.50;;;0.00;99.90;;;;;;5111730;28;20457;-70
2021/01/17 04:54:28;;;;;;;28.17;18.53;;;-0.10;99.90;;;;;;5111489;28;20532;-72
2021/01/17 04:57:02;;;;;;;29.80;20.10;;;-0.20;99.90;;;;;;5111690;28;20845;-69
2021/01/17 04:59:35;;;;;;;25.20;17.60;;;-0.10;99.90;;;;;;5111218;28;20977;-70
2021/01/17 05:02:22;;;;;;;29.20;19.13;;;-0.20;99.90;;;;;;5110998;28;20849;-71
2021/01/17 05:05:22;;;;;;;28.93;18.27;;;-0.20;99.90;;;;;;5111694;28;20437;-70
2021/01/17 05:08:25;;;;;;;23.13;15.93;;;-0.20;99.90;;;;;;5111872;28;20461;-70
2021/01/17 05:11:02;;;;;;;26.50;17.30;;;-0.20;99.90;;;;;;5110748;28;20917;-71
2021/01/17 05:13:35;;;;;;;27.13;16.60;;;-0.20;99.90;;;;;;5111658;27;20867;-70
2021/01/17 05:16:05;;;;;;;23.70;15.70;;;-0.10;99.90;;;;;;5111465;28;20548;-69
2021/01/17 05:18:32;;;;;;;27.67;17.63;;;-0.10;99.90;;;;;;5111267;28;20526;-70
2021/01/17 05:21:00;;;;;;;25.73;17.47;;;-0.10;99.90;;;;;;5110797;28;20441;-69
2021/01/17 05:23:33;;;;;;;28.83;19.10;;;-0.20;99.90;;;;;;5110792;28;20447;-69
2021/01/17 05:26:00;;;;;;;26.50;19.00;;;-0.20;99.90;;;;;;5111194;28;20294;-70
2021/01/17 05:28:28;;;;;;;26.20;18.43;;;-0.20;99.90;;;;;;5111023;28;20536;-69
2021/01/17 05:30:57;;;;;;;27.33;18.50;;;-0.20;99.90;;;;;;5110693;28;20445;-69
2021/01/17 05:33:28;;;;;;;27.20;18.50;;;-0.10;99.90;;;;;;5111228;28;20485;-71
2021/01/17 05:35:56;;;;;;;26.90;17.93;;;-0.20;99.90;;;;;;5110893;28;20533;-70
2021/01/17 05:38:22;;;;;;;24.73;16.80;;;-0.30;99.90;;;;;;5110713;28;21062;-69
2021/01/17 05:40:49;;;;;;;25.20;17.63;;;-0.30;99.90;;;;;;5110588;28;20855;-70
2021/01/17 05:43:16;;;;;;;23.87;16.67;;;-0.30;99.90;;;;;;5111002;27;20571;-71
2021/01/17 05:45:42;;;;;;;26.93;17.60;;;-0.30;99.90;;;;;;5110638;28;20539;-70
2021/01/17 05:48:10;;;;;;;26.63;17.43;;;-0.20;99.90;;;;;;5110877;28;21092;-70
2021/01/17 05:50:42;;;;;;;28.83;19.60;;;-0.20;99.90;;;;;;5110108;28;20484;-70
2021/01/17 05:53:09;;;;;;;28.70;19.47;;;-0.20;99.90;;;;;;5110899;28;20524;-70
2021/01/17 05:55:37;;;;;;;27.50;17.70;;;-0.10;99.90;;;;;;5110393;28;21002;-69
2021/01/17 05:58:23;;;;;;;27.20;19.03;;;-0.10;99.90;;;;;;5110734;28;20523;-70
2021/01/17 06:00:50;;;;;;;25.33;18.50;;;-0.10;99.90;;;;;;5109773;28;20524;-70
2021/01/17 06:03:22;;;;;;;32.60;19.47;;;0.00;99.90;;;;;;5110408;28;20523;-70
2021/01/17 06:05:50;;;;;;;30.80;19.57;;;0.00;99.90;;;;;;5110619;28;20452;-69
2021/01/17 06:08:20;;;;;;;25.73;18.30;;;0.00;99.90;;;;;;5110237;28;20448;-70
2021/01/17 06:10:48;;;;;;;24.37;18.03;;;0.10;99.90;;;;;;5109748;28;20447;-69
2021/01/17 06:13:22;;;;;;;30.33;20.83;;;0.00;99.90;;;;;;5110057;28;20515;-69
2021/01/17 06:15:48;;;;;;;30.50;20.47;;;0.10;99.90;;;;;;5109868;28;20540;-69
2021/01/17 06:18:18;;;;;;;30.53;19.70;;;0.10;99.90;;;;;;5110066;28;20472;-69
2021/01/17 06:20:46;;;;;;;27.50;19.97;;;0.10;99.90;;;;;;5109800;28;20441;-69
2021/01/17 06:23:19;;;;;;;33.17;21.03;;;0.10;99.90;;;;;;5109579;28;20437;-69
2021/01/17 06:25:46;;;;;;;28.53;18.47;;;0.10;99.90;;;;;;5108458;28;20474;-69
2021/01/17 06:28:14;;;;;;;28.50;20.17;;;0.10;99.90;;;;;;5109777;28;20486;-70
2021/01/17 06:30:41;;;;;;;27.50;19.40;;;0.10;99.90;;;;;;5109331;28;20455;-70
2021/01/17 06:33:08;;;;;;;32.13;19.50;;;0.10;99.90;;;;;;5110033;28;20441;-69
2021/01/17 06:35:37;;;;;;;29.27;20.40;;;0.10;99.90;;;;;;5109617;28;20528;-70
2021/01/17 06:38:15;;;;;;;28.50;19.70;;;0.10;99.90;;;;;;5109759;28;20480;-69
2021/01/17 06:40:43;;;;;;;26.60;18.70;;;0.00;99.90;;;;;;5108876;28;20441;-69
2021/01/17 06:43:11;;;;;;;26.83;18.13;;;0.00;99.90;;;;;;5109703;28;20529;-69
2021/01/17 06:45:41;;;;;;;33.43;22.43;;;-0.10;99.90;;;;;;5109385;28;20531;-69
2021/01/17 06:48:08;;;;;;;31.90;20.70;;;-0.10;99.90;;;;;;5109735;28;20520;-70
2021/01/17 06:50:35;;;;;;;30.63;19.43;;;0.00;99.90;;;;;;5108888;28;20536;-70
2021/01/17 06:53:02;;;;;;;33.77;21.00;;;0.00;99.90;;;;;;5109456;28;20545;-69
2021/01/17 06:55:29;;;;;;;29.87;18.90;;;0.00;99.90;;;;;;5109576;28;20441;-69
2021/01/17 06:57:57;;;;;;;32.10;20.47;;;0.00;99.90;;;;;;5109595;28;20572;-69
2021/01/17 07:00:23;;;;;;;28.77;20.93;;;-0.10;99.90;;;;;;5108911;28;20448;-70
2021/01/17 07:02:54;;;;;;;32.03;19.27;;;0.00;99.90;;;;;;5109550;28;20461;-69
2021/01/17 07:06:01;;;;;;;30.40;20.27;;;0.00;99.90;;;;;;5109248;28;20456;-69
2021/01/17 07:08:54;;;;;;;28.43;19.43;;;0.10;99.90;;;;;;5109421;28;20437;-69
2021/01/17 07:11:55;;;;;;;32.67;19.80;;;0.10;99.90;;;;;;5108566;28;21058;-69
2021/01/17 07:14:28;;;;;;;29.93;20.77;;;0.10;99.90;;;;;;5109817;28;20433;-69
2021/01/17 07:16:58;;;;;;;32.07;21.20;;;0.10;99.90;;;;;;5109372;28;20486;-69
2021/01/17 07:19:31;;;;;;;29.30;20.00;;;0.10;99.90;;;;;;5109421;28;20532;-69
2021/01/17 07:22:06;;;;;;;29.13;19.90;;;0.20;99.90;;;;;;5109178;28;20488;-71
2021/01/17 07:24:33;;;;;;;31.40;20.07;;;0.20;99.90;;;;;;5111744;28;20523;-70
2021/01/17 07:27:09;;;;;;;34.17;21.03;;;0.20;99.90;;;;;;5113563;28;20575;-70
2021/01/17 07:29:37;;;;;;;26.40;18.80;;;0.20;99.90;;;;;;5112775;28;20527;-69
2021/01/17 07:32:25;;;;;;;31.47;21.77;;;0.30;99.90;;;;;;5113246;28;21070;-69
2021/01/17 07:34:53;;;;;;;33.40;21.23;;;0.30;99.90;;;;;;5112997;28;20459;-69
2021/01/17 07:37:21;;;;;;;33.57;20.70;;;0.20;99.90;;;;;;5113021;28;20481;-69
2021/01/17 07:39:54;;;;;;;30.37;20.83;;;0.20;99.90;;;;;;5112799;28;20441;-69
2021/01/17 07:42:24;;;;;;;28.93;19.07;;;0.20;99.90;;;;;;5112939;28;20461;-71
2021/01/17 07:44:55;;;;;;;34.00;23.60;;;0.30;99.90;;;;;;5112596;28;20441;-71
2021/01/17 07:47:29;;;;;;;33.17;21.27;;;0.30;99.90;;;;;;5112516;27;20438;-69
2021/01/17 07:49:56;;;;;;;31.57;20.37;;;0.40;99.90;;;;;;5111226;28;20450;-69
2021/01/17 07:52:25;;;;;;;32.37;19.90;;;0.50;99.90;;;;;;5112387;28;20457;-69
2021/01/17 07:54:54;;;;;;;29.80;20.33;;;0.50;99.90;;;;;;5111431;28;20540;-69
2021/01/17 07:57:25;;;;;;;32.53;21.30;;;0.60;99.90;;;;;;5111193;28;20473;-69
2021/01/17 07:59:52;;;;;;;27.97;19.00;;;0.60;99.90;;;;;;5111376;28;20532;-69
2021/01/17 08:02:25;;;;;;;29.13;20.30;;;0.60;99.90;;;;;;5111940;28;21132;-70
2021/01/17 08:04:52;;;;;;;32.00;21.10;;;0.60;99.90;;;;;;5112015;28;20441;-70
2021/01/17 08:07:31;;;;;;;33.60;22.33;;;0.60;99.90;;;;;;5111942;28;20442;-70
2021/01/17 08:09:57;;;;;;;27.27;19.80;;;0.60;99.90;;;;;;5111448;28;20448;-69
2021/01/17 08:12:33;;;;;;;33.07;21.00;;;0.70;99.90;;;;;;5090851;28;20494;-70
2021/01/17 08:15:30;;;;;;;31.10;21.30;;;0.60;99.90;;;;;;5103649;28;20464;-70
2021/01/17 08:17:57;;;;;;;33.73;22.37;;;0.70;99.90;;;;;;5087315;28;20852;-69
2021/01/17 08:20:28;;;;;;;30.10;21.00;;;0.70;99.90;;;;;;5099176;28;20441;-71
2021/01/17 08:23:17;;;;;;;34.80;22.13;;;0.80;99.90;;;;;;5086786;28;20576;-70
2021/01/17 08:25:49;;;;;;;32.73;22.27;;;0.80;99.90;;;;;;5078920;28;20518;-70
2021/01/17 08:28:41;;;;;;;34.27;24.67;;;0.90;99.90;;;;;;5102837;28;20438;-71
2021/01/17 08:31:39;;;;;;;34.27;21.30;;;0.90;99.90;;;;;;5089550;28;20466;-71
2021/01/17 08:34:27;;;;;;;34.63;22.73;;;1.00;99.90;;;;;;5103704;28;20522;-71
2021/01/17 08:36:54;;;;;;;35.67;22.90;;;1.10;99.90;;;;;;5092277;28;20592;-70
2021/01/17 08:39:43;;;;;;;35.30;22.60;;;1.10;99.90;;;;;;5107158;28;20529;-70
2021/01/17 08:42:30;;;;;;;36.80;22.70;;;1.20;99.90;;;;;;5111541;28;20461;-72
2021/01/17 08:44:58;;;;;;;39.87;22.90;;;1.20;99.90;;;;;;5111560;28;20826;-71
2021/01/17 08:47:25;;;;;;;33.30;21.80;;;1.20;99.90;;;;;;5111709;28;20460;-71
2021/01/17 08:49:52;;;;;;;33.53;22.07;;;1.30;99.90;;;;;;5110240;28;20945;-70
2021/01/17 08:52:24;;;;;;;32.40;23.07;;;1.30;99.90;;;;;;5111502;28;20540;-72
2021/01/17 08:54:51;;;;;;;32.30;21.80;;;1.40;99.90;;;;;;5111176;28;20442;-71
2021/01/17 08:57:41;;;;;;;35.07;23.73;;;1.40;99.90;;;;;;5110899;28;20560;-71
2021/01/17 09:00:11;;;;;;;29.47;21.67;;;1.50;99.90;;;;;;5110258;28;20445;-71
2021/01/17 09:02:38;;;;;;;32.53;23.67;;;1.50;99.90;;;;;;5111006;28;20540;-70
2021/01/17 09:05:16;;;;;;;32.37;21.33;;;1.50;99.90;;;;;;5094569;28;20434;-68
2021/01/17 09:07:43;;;;;;;34.37;23.83;;;1.40;99.90;;;;;;5098282;28;20429;-72
2021/01/17 09:10:14;;;;;;;34.87;22.40;;;1.40;99.90;;;;;;5095387;28;20535;-71
2021/01/17 09:12:40;;;;;;;33.63;22.63;;;1.40;99.90;;;;;;5090180;28;20548;-71
2021/01/17 09:15:16;;;;;;;32.43;22.90;;;1.50;99.90;;;;;;5090455;28;20563;-71
2021/01/17 09:17:43;;;;;;;33.17;21.90;;;1.50;99.90;;;;;;5090262;28;20477;-70
2021/01/17 09:20:14;;;;;;;35.67;23.60;;;1.50;99.90;;;;;;5089625;28;20815;-70
2021/01/17 09:22:43;;;;;;;35.07;23.33;;;1.60;99.90;;;;;;5090043;28;20466;-70
2021/01/17 09:25:12;;;;;;;32.47;22.60;;;1.60;99.90;;;;;;5089997;28;20442;-71
2021/01/17 09:27:39;;;;;;;34.30;25.00;;;1.60;99.90;;;;;;5090220;28;20438;-70
2021/01/17 09:30:07;;;;;;;35.33;24.67;;;1.70;99.90;;;;;;5089465;28;20562;-70
2021/01/17 09:32:35;;;;;;;35.87;23.70;;;1.80;99.90;;;;;;5090092;28;20541;-71
2021/01/17 09:35:05;;;;;;;36.30;25.17;;;1.90;99.90;;;;;;5089736;28;20461;-71
2021/01/17 09:37:33;;;;;;;35.07;24.17;;;1.90;99.90;;;;;;5089915;28;20538;-70
2021/01/17 09:40:00;;;;;;;36.93;25.63;;;2.00;99.90;;;;;;5086177;28;20454;-71
2021/01/17 09:42:27;;;;;;;33.80;22.40;;;2.00;99.90;;;;;;5098005;28;20912;-69
2021/01/17 09:44:56;;;;;;;35.67;25.20;;;2.00;99.90;;;;;;5105646;28;20638;-72
2021/01/17 09:47:23;;;;;;;32.70;22.10;;;2.00;99.90;;;;;;5103719;28;20459;-69
2021/01/17 09:49:51;;;;;;;38.80;24.70;;;2.00;99.90;;;;;;5108605;28;20490;-71
2021/01/17 09:52:19;;;;;;;35.10;24.37;;;2.00;99.90;;;;;;5095790;28;20466;-69
2021/01/17 09:54:46;;;;;;;38.83;25.60;;;2.00;99.90;;;;;;5090034;28;20529;-70
2021/01/17 09:57:17;;;;;;;34.73;23.97;;;2.10;99.90;;;;;;5089622;28;20480;-69
2021/01/17 09:59:43;;;;;;;35.20;24.93;;;2.20;99.90;;;;;;5089357;28;20923;-70
2021/01/17 10:02:10;;;;;;;36.27;23.37;;;2.30;99.90;;;;;;5089631;28;20498;-69
2021/01/17 10:04:37;;;;;;;37.70;25.27;;;2.40;99.90;;;;;;5089655;28;20446;-69
2021/01/17 10:07:04;;;;;;;37.90;24.03;;;2.40;99.90;;;;;;5089499;28;20537;-70
2021/01/17 10:09:31;;;;;;;34.63;24.37;;;2.40;99.90;;;;;;5089294;28;20474;-70
2021/01/17 10:11:59;;;;;;;35.70;24.70;;;2.50;99.90;;;;;;5089896;28;20545;-70
2021/01/17 10:14:31;;;;;;;36.53;26.73;;;2.30;99.90;;;;;;5089694;28;20525;-70
2021/01/17 10:16:58;;;;;;;33.47;23.30;;;2.40;99.90;;;;;;5089537;28;20503;-69
2021/01/17 10:19:29;;;;;;;36.47;24.73;;;2.40;99.90;;;;;;5088861;28;20516;-71
2021/01/17 10:21:56;;;;;;;39.00;27.53;;;2.50;99.90;;;;;;5100757;28;20544;-70
2021/01/17 10:24:25;;;;;;;37.10;25.80;;;2.60;99.90;;;;;;5110058;28;20445;-70
2021/01/17 10:26:53;;;;;;;33.33;23.57;;;2.60;99.90;;;;;;5109857;28;20531;-71
2021/01/17 10:29:21;;;;;;;40.17;26.80;;;2.70;99.90;;;;;;5109059;28;20498;-70
2021/01/17 10:31:51;;;;;;;38.53;26.97;;;2.60;99.90;;;;;;5109826;28;20551;-71
2021/01/17 10:34:25;;;;;;;36.23;26.07;;;2.60;99.90;;;;;;5109988;28;20464;-71
2021/01/17 10:36:56;;;;;;;33.93;24.77;;;2.60;99.90;;;;;;5109771;28;20647;-72
2021/01/17 10:39:24;;;;;;;35.93;25.03;;;2.60;99.90;;;;;;5109177;28;20966;-70
2021/01/17 10:41:54;;;;;;;37.73;27.40;;;2.70;99.90;;;;;;5109600;28;20493;-71
2021/01/17 10:44:25;;;;;;;39.27;24.47;;;2.70;99.90;;;;;;5109312;28;20524;-70
2021/01/17 10:47:00;;;;;;;37.57;25.70;;;2.70;99.90;;;;;;5100282;28;20441;-70
2021/01/17 10:49:33;;;;;;;35.80;24.87;;;2.60;99.90;;;;;;5101556;28;20445;-70
2021/01/17 10:52:09;;;;;;;33.90;24.00;;;2.60;99.90;;;;;;5105702;28;21024;-69
2021/01/17 10:54:40;;;;;;;36.67;25.57;;;2.60;99.90;;;;;;5089255;28;20637;-70
2021/01/17 10:57:09;;;;;;;36.57;24.93;;;2.60;99.90;;;;;;5089015;28;20913;-70
2021/01/17 10:59:36;;;;;;;44.27;27.30;;;2.60;99.90;;;;;;5091318;28;20897;-70
2021/01/17 11:02:02;;;;;;;37.57;26.80;;;2.50;99.90;;;;;;5109464;27;20541;-72
2021/01/17 11:04:39;;;;;;;38.33;27.03;;;2.60;99.90;;;;;;5093174;28;20524;-70
2021/01/17 11:07:06;;;;;;;38.07;26.93;;;2.60;99.90;;;;;;5092936;28;20495;-70
2021/01/17 11:09:34;;;;;;;32.87;24.77;;;2.60;99.90;;;;;;5092295;28;20529;-71
2021/01/17 11:12:02;;;;;;;37.90;27.70;;;2.60;99.90;;;;;;5096641;28;20457;-71
2021/01/17 11:14:30;;;;;;;37.77;27.10;;;2.60;99.90;;;;;;5104441;28;20484;-70
2021/01/17 11:16:57;;;;;;;37.73;24.67;;;2.70;99.90;;;;;;5111706;28;20464;-70
2021/01/17 11:19:36;;;;;;;40.80;28.07;;;2.60;99.90;;;;;;5112484;28;20544;-70
2021/01/17 11:22:02;;;;;;;39.15;28.55;;;2.60;99.90;;;;;;5112641;28;20512;-69
2021/01/17 11:24:34;;;;;;;36.27;25.67;;;2.70;99.90;;;;;;5113310;28;20615;-71
2021/01/17 11:27:13;;;;;;;36.87;25.43;;;2.70;99.90;;;;;;5113334;28;20525;-69
2021/01/17 11:29:41;;;;;;;37.53;25.37;;;2.70;99.90;;;;;;5112556;28;20520;-69
2021/01/17 11:32:08;;;;;;;37.47;26.27;;;2.60;99.90;;;;;;5113053;28;20469;-71
2021/01/17 11:34:38;;;;;;;37.93;26.13;;;2.60;99.90;;;;;;5104573;28;20473;-69
2021/01/17 11:37:06;;;;;;;36.30;25.67;;;2.70;99.90;;;;;;5072310;28;20449;-70
2021/01/17 11:39:32;;;;;;;39.37;26.43;;;2.70;99.90;;;;;;5071802;28;20482;-70
2021/01/17 11:41:59;;;;;;;41.70;25.93;;;2.70;99.90;;;;;;5072497;28;20494;-70
2021/01/17 11:44:31;;;;;;;37.87;27.20;;;2.60;99.90;;;;;;5072288;28;20526;-72
2021/01/17 11:47:00;;;;;;;36.17;26.40;;;2.60;99.90;;;;;;5072084;28;21070;-71
2021/01/17 11:49:28;;;;;;;37.47;24.50;;;2.50;99.90;;;;;;5071418;28;20498;-70
2021/01/17 11:51:54;;;;;;;36.20;26.53;;;2.50;99.90;;;;;;5072094;28;20462;-70
2021/01/17 11:54:25;;;;;;;42.83;28.03;;;2.50;99.90;;;;;;5072089;28;20443;-70
2021/01/17 11:57:02;;;;;;;41.93;28.20;;;2.40;99.90;;;;;;5071991;28;20954;-70
2021/01/17 11:59:31;;;;;;;39.80;26.17;;;2.40;99.90;;;;;;5072631;28;20454;-70
2021/01/17 12:01:57;;;;;;;38.33;28.10;;;2.40;99.90;;;;;;5100329;28;20528;-70
2021/01/17 12:04:26;;;;;;;39.30;26.93;;;2.40;99.90;;;;;;5095243;28;20489;-72
2021/01/17 12:07:05;;;;;;;39.70;27.87;;;2.40;99.90;;;;;;5091861;28;20450;-71
2021/01/17 12:09:32;;;;;;;37.07;23.40;;;2.30;99.90;;;;;;5075854;28;20528;-71
2021/01/17 12:12:11;;;;;;;30.33;23.17;;;2.30;99.90;;;;;;5071555;28;20489;-70
2021/01/17 12:14:38;;;;;;;34.10;22.03;;;2.30;99.90;;;;;;5103711;28;20445;-71
2021/01/17 12:17:06;;;;;;;30.27;20.70;;;2.30;99.90;;;;;;5082321;28;21333;-71
2021/01/17 12:19:32;;;;;;;32.90;23.50;;;2.30;99.90;;;;;;5087281;28;20461;-71
2021/01/17 12:22:00;;;;;;;31.67;22.53;;;2.30;99.90;;;;;;5090356;28;20505;-70
2021/01/17 12:24:27;;;;;;;34.80;23.23;;;2.30;99.90;;;;;;5090850;28;20887;-71
2021/01/17 12:26:55;;;;;;;38.97;25.47;;;2.30;99.90;;;;;;5084320;28;20562;-70
2021/01/17 12:29:22;;;;;;;32.17;23.80;;;2.30;99.90;;;;;;5089618;28;20534;-70
2021/01/17 12:31:50;;;;;;;29.53;20.77;;;2.30;99.90;;;;;;5085420;28;20553;-69
2021/01/17 12:34:17;;;;;;;36.27;22.97;;;2.30;99.90;;;;;;5082132;28;20518;-70
2021/01/17 12:36:46;;;;;;;33.07;22.00;;;2.40;99.90;;;;;;5088868;28;20478;-70
2021/01/17 12:39:14;;;;;;;28.47;20.20;;;2.40;99.90;;;;;;5075116;28;20702;-71
2021/01/17 12:41:43;;;;;;;30.53;22.03;;;2.40;99.90;;;;;;5078470;28;20504;-70
2021/01/17 12:44:10;;;;;;;38.07;25.70;;;2.30;99.90;;;;;;5076949;28;20469;-69
2021/01/17 12:46:37;;;;;;;31.70;21.40;;;2.40;99.90;;;;;;5069806;28;20481;-70